sensor_id;sensor_type;location;lat;lon;timestamp;P1;durP1;ratioP1;P2;durP2;ratioP2
48765;SDS011;65794;51.836;5.002;2023-04-03T00:00:54;5.03;;;1.17;;
48765;SDS011;65794;51.836;5.002;2023-04-03T00:03:21;7.10;;;1.60;;
48765;SDS011;65794;51.836;5.002;2023-04-03T00:05:48;4.45;;;1.33;;
48765;SDS011;65794;51.836;5.002;2023-04-03T00:08:15;4.35;;;1.55;;
48765;SDS011;65794;51.836;5.002;2023-04-03T00:10:42;4.32;;;1.25;;
48765;SDS011;65794;51.836;5.002;2023-04-03T00:13:10;2.95;;;1.02;;
48765;SDS011;65794;51.836;5.002;2023-04-03T00:15:37;7.30;;;1.33;;
48765;SDS011;65794;51.836;5.002;2023-04-03T00:18:05;3.35;;;1.27;;
48765;SDS011;65794;51.836;5.002;2023-04-03T00:20:32;4.88;;;1.17;;
48765;SDS011;65794;51.836;5.002;2023-04-03T00:23:00;5.40;;;1.40;;
48765;SDS011;65794;51.836;5.002;2023-04-03T00:25:28;3.92;;;1.00;;
48765;SDS011;65794;51.836;5.002;2023-04-03T00:27:55;3.08;;;1.08;;
48765;SDS011;65794;51.836;5.002;2023-04-03T00:30:22;5.18;;;1.27;;
48765;SDS011;65794;51.836;5.002;2023-04-03T00:32:50;6.32;;;0.82;;
48765;SDS011;65794;51.836;5.002;2023-04-03T00:35:17;4.72;;;1.23;;
48765;SDS011;65794;51.836;5.002;2023-04-03T00:37:45;7.05;;;1.35;;
48765;SDS011;65794;51.836;5.002;2023-04-03T00:40:13;5.10;;;1.60;;
48765;SDS011;65794;51.836;5.002;2023-04-03T00:42:41;7.82;;;1.30;;
48765;SDS011;65794;51.836;5.002;2023-04-03T00:47:44;5.55;;;1.17;;
48765;SDS011;65794;51.836;5.002;2023-04-03T00:50:12;4.20;;;1.25;;
48765;SDS011;65794;51.836;5.002;2023-04-03T00:52:38;4.78;;;1.27;;
48765;SDS011;65794;51.836;5.002;2023-04-03T00:55:07;3.25;;;0.98;;
48765;SDS011;65794;51.836;5.002;2023-04-03T00:57:35;3.60;;;1.30;;
48765;SDS011;65794;51.836;5.002;2023-04-03T01:00:04;3.17;;;1.08;;
48765;SDS011;65794;51.836;5.002;2023-04-03T01:02:32;4.75;;;1.33;;
48765;SDS011;65794;51.836;5.002;2023-04-03T01:04:59;3.85;;;1.20;;
48765;SDS011;65794;51.836;5.002;2023-04-03T01:07:27;5.65;;;1.33;;
48765;SDS011;65794;51.836;5.002;2023-04-03T01:09:56;3.75;;;1.10;;
48765;SDS011;65794;51.836;5.002;2023-04-03T01:14:52;4.55;;;1.35;;
48765;SDS011;65794;51.836;5.002;2023-04-03T01:17:30;6.65;;;1.50;;
48765;SDS011;65794;51.836;5.002;2023-04-03T01:20:02;3.78;;;1.42;;
48765;SDS011;65794;51.836;5.002;2023-04-03T01:22:56;5.82;;;1.20;;
48765;SDS011;65794;51.836;5.002;2023-04-03T01:25:25;4.53;;;1.30;;
48765;SDS011;65794;51.836;5.002;2023-04-03T01:27:53;3.33;;;1.30;;
48765;SDS011;65794;51.836;5.002;2023-04-03T01:30:20;4.38;;;1.55;;
48765;SDS011;65794;51.836;5.002;2023-04-03T01:32:48;3.78;;;1.40;;
48765;SDS011;65794;51.836;5.002;2023-04-03T01:35:16;3.00;;;1.20;;
48765;SDS011;65794;51.836;5.002;2023-04-03T01:37:43;5.93;;;1.40;;
48765;SDS011;65794;51.836;5.002;2023-04-03T01:40:10;4.57;;;1.13;;
48765;SDS011;65794;51.836;5.002;2023-04-03T01:42:37;4.30;;;1.67;;
48765;SDS011;65794;51.836;5.002;2023-04-03T01:45:04;5.47;;;1.20;;
48765;SDS011;65794;51.836;5.002;2023-04-03T01:47:31;6.30;;;0.98;;
48765;SDS011;65794;51.836;5.002;2023-04-03T01:49:58;6.40;;;1.50;;
48765;SDS011;65794;51.836;5.002;2023-04-03T01:52:27;5.05;;;1.48;;
48765;SDS011;65794;51.836;5.002;2023-04-03T01:54:54;4.93;;;1.25;;
48765;SDS011;65794;51.836;5.002;2023-04-03T01:57:21;5.65;;;1.50;;
48765;SDS011;65794;51.836;5.002;2023-04-03T01:59:48;3.13;;;1.45;;
48765;SDS011;65794;51.836;5.002;2023-04-03T02:02:16;4.25;;;1.27;;
48765;SDS011;65794;51.836;5.002;2023-04-03T02:04:43;5.45;;;1.23;;
48765;SDS011;65794;51.836;5.002;2023-04-03T02:07:10;4.85;;;1.45;;
48765;SDS011;65794;51.836;5.002;2023-04-03T02:09:37;4.88;;;1.30;;
48765;SDS011;65794;51.836;5.002;2023-04-03T02:12:04;5.43;;;1.40;;
48765;SDS011;65794;51.836;5.002;2023-04-03T02:14:32;5.13;;;1.38;;
48765;SDS011;65794;51.836;5.002;2023-04-03T02:17:00;6.78;;;1.35;;
48765;SDS011;65794;51.836;5.002;2023-04-03T02:19:27;5.45;;;1.42;;
48765;SDS011;65794;51.836;5.002;2023-04-03T02:21:54;3.60;;;1.25;;
48765;SDS011;65794;51.836;5.002;2023-04-03T02:24:23;4.50;;;1.40;;
48765;SDS011;65794;51.836;5.002;2023-04-03T02:26:50;3.00;;;1.00;;
48765;SDS011;65794;51.836;5.002;2023-04-03T02:29:17;6.05;;;1.65;;
48765;SDS011;65794;51.836;5.002;2023-04-03T02:31:44;9.18;;;1.75;;
48765;SDS011;65794;51.836;5.002;2023-04-03T02:34:11;6.60;;;1.65;;
48765;SDS011;65794;51.836;5.002;2023-04-03T02:36:39;5.07;;;1.30;;
48765;SDS011;65794;51.836;5.002;2023-04-03T02:39:08;7.05;;;1.55;;
48765;SDS011;65794;51.836;5.002;2023-04-03T02:41:38;5.00;;;1.30;;
48765;SDS011;65794;51.836;5.002;2023-04-03T02:44:11;6.55;;;1.80;;
48765;SDS011;65794;51.836;5.002;2023-04-03T02:46:38;3.15;;;1.40;;
48765;SDS011;65794;51.836;5.002;2023-04-03T02:49:05;4.60;;;1.50;;
48765;SDS011;65794;51.836;5.002;2023-04-03T02:51:33;4.75;;;1.50;;
48765;SDS011;65794;51.836;5.002;2023-04-03T02:54:01;5.05;;;1.35;;
48765;SDS011;65794;51.836;5.002;2023-04-03T02:56:31;4.65;;;1.48;;
48765;SDS011;65794;51.836;5.002;2023-04-03T02:58:58;5.35;;;1.58;;
48765;SDS011;65794;51.836;5.002;2023-04-03T03:01:25;3.88;;;1.58;;
48765;SDS011;65794;51.836;5.002;2023-04-03T03:03:55;3.83;;;1.42;;
48765;SDS011;65794;51.836;5.002;2023-04-03T03:06:22;5.47;;;1.52;;
48765;SDS011;65794;51.836;5.002;2023-04-03T03:08:49;5.22;;;1.58;;
48765;SDS011;65794;51.836;5.002;2023-04-03T03:11:17;5.03;;;1.52;;
48765;SDS011;65794;51.836;5.002;2023-04-03T03:13:44;4.07;;;1.55;;
48765;SDS011;65794;51.836;5.002;2023-04-03T03:16:11;3.47;;;1.52;;
48765;SDS011;65794;51.836;5.002;2023-04-03T03:18:38;4.55;;;1.30;;
48765;SDS011;65794;51.836;5.002;2023-04-03T03:21:05;5.32;;;1.90;;
48765;SDS011;65794;51.836;5.002;2023-04-03T03:23:34;4.63;;;1.60;;
48765;SDS011;65794;51.836;5.002;2023-04-03T03:26:03;4.35;;;1.33;;
48765;SDS011;65794;51.836;5.002;2023-04-03T03:28:30;3.65;;;1.40;;
48765;SDS011;65794;51.836;5.002;2023-04-03T03:30:58;3.83;;;1.50;;
48765;SDS011;65794;51.836;5.002;2023-04-03T03:33:25;5.38;;;1.55;;
48765;SDS011;65794;51.836;5.002;2023-04-03T03:35:53;3.25;;;1.25;;
48765;SDS011;65794;51.836;5.002;2023-04-03T03:38:20;3.58;;;1.52;;
48765;SDS011;65794;51.836;5.002;2023-04-03T03:40:48;6.22;;;1.90;;
48765;SDS011;65794;51.836;5.002;2023-04-03T03:43:17;5.32;;;1.35;;
48765;SDS011;65794;51.836;5.002;2023-04-03T03:45:49;8.35;;;1.65;;
48765;SDS011;65794;51.836;5.002;2023-04-03T03:48:17;8.23;;;2.00;;
48765;SDS011;65794;51.836;5.002;2023-04-03T03:50:44;6.03;;;2.00;;
48765;SDS011;65794;51.836;5.002;2023-04-03T03:53:12;6.05;;;1.98;;
48765;SDS011;65794;51.836;5.002;2023-04-03T03:55:39;4.65;;;1.55;;
48765;SDS011;65794;51.836;5.002;2023-04-03T03:58:07;5.53;;;1.60;;
48765;SDS011;65794;51.836;5.002;2023-04-03T04:00:34;7.25;;;1.88;;
48765;SDS011;65794;51.836;5.002;2023-04-03T04:03:01;9.45;;;1.70;;
48765;SDS011;65794;51.836;5.002;2023-04-03T04:05:30;6.88;;;1.80;;
48765;SDS011;65794;51.836;5.002;2023-04-03T04:07:59;6.00;;;1.77;;
48765;SDS011;65794;51.836;5.002;2023-04-03T04:10:27;7.50;;;1.85;;
48765;SDS011;65794;51.836;5.002;2023-04-03T04:12:55;6.97;;;2.05;;
48765;SDS011;65794;51.836;5.002;2023-04-03T04:15:26;5.75;;;1.92;;
48765;SDS011;65794;51.836;5.002;2023-04-03T04:17:55;4.00;;;1.55;;
48765;SDS011;65794;51.836;5.002;2023-04-03T04:20:22;7.43;;;2.05;;
48765;SDS011;65794;51.836;5.002;2023-04-03T04:22:50;8.65;;;1.95;;
48765;SDS011;65794;51.836;5.002;2023-04-03T04:25:18;4.97;;;2.00;;
48765;SDS011;65794;51.836;5.002;2023-04-03T04:27:46;4.00;;;1.83;;
48765;SDS011;65794;51.836;5.002;2023-04-03T04:30:14;5.07;;;1.75;;
48765;SDS011;65794;51.836;5.002;2023-04-03T04:32:43;6.18;;;1.67;;
48765;SDS011;65794;51.836;5.002;2023-04-03T04:35:11;4.97;;;1.70;;
48765;SDS011;65794;51.836;5.002;2023-04-03T04:37:44;3.92;;;1.58;;
48765;SDS011;65794;51.836;5.002;2023-04-03T04:40:12;7.22;;;2.10;;
48765;SDS011;65794;51.836;5.002;2023-04-03T04:42:39;5.68;;;1.90;;
48765;SDS011;65794;51.836;5.002;2023-04-03T04:45:07;10.35;;;2.38;;
48765;SDS011;65794;51.836;5.002;2023-04-03T04:47:35;8.00;;;2.00;;
48765;SDS011;65794;51.836;5.002;2023-04-03T04:50:04;11.90;;;2.50;;
48765;SDS011;65794;51.836;5.002;2023-04-03T04:52:31;5.20;;;2.00;;
48765;SDS011;65794;51.836;5.002;2023-04-03T04:55:02;9.18;;;2.35;;
48765;SDS011;65794;51.836;5.002;2023-04-03T04:57:29;7.53;;;2.92;;
48765;SDS011;65794;51.836;5.002;2023-04-03T04:59:58;7.95;;;2.20;;
48765;SDS011;65794;51.836;5.002;2023-04-03T05:02:25;7.43;;;1.92;;
48765;SDS011;65794;51.836;5.002;2023-04-03T05:04:53;6.63;;;1.80;;
48765;SDS011;65794;51.836;5.002;2023-04-03T05:07:25;5.43;;;1.98;;
48765;SDS011;65794;51.836;5.002;2023-04-03T05:09:53;8.57;;;2.38;;
48765;SDS011;65794;51.836;5.002;2023-04-03T05:12:20;8.65;;;2.22;;
48765;SDS011;65794;51.836;5.002;2023-04-03T05:14:53;5.82;;;1.50;;
48765;SDS011;65794;51.836;5.002;2023-04-03T05:17:20;6.40;;;1.92;;
48765;SDS011;65794;51.836;5.002;2023-04-03T05:19:51;8.15;;;2.17;;
48765;SDS011;65794;51.836;5.002;2023-04-03T05:22:20;6.65;;;1.85;;
48765;SDS011;65794;51.836;5.002;2023-04-03T05:24:48;8.65;;;2.20;;
48765;SDS011;65794;51.836;5.002;2023-04-03T05:27:18;6.47;;;2.60;;
48765;SDS011;65794;51.836;5.002;2023-04-03T05:29:50;5.53;;;2.08;;
48765;SDS011;65794;51.836;5.002;2023-04-03T05:32:21;8.70;;;2.42;;
48765;SDS011;65794;51.836;5.002;2023-04-03T05:34:54;10.13;;;2.47;;
48765;SDS011;65794;51.836;5.002;2023-04-03T05:37:21;9.30;;;2.90;;
48765;SDS011;65794;51.836;5.002;2023-04-03T05:39:50;6.63;;;2.13;;
48765;SDS011;65794;51.836;5.002;2023-04-03T05:42:20;6.85;;;2.17;;
48765;SDS011;65794;51.836;5.002;2023-04-03T05:44:47;7.35;;;1.98;;
48765;SDS011;65794;51.836;5.002;2023-04-03T05:47:17;8.23;;;2.20;;
48765;SDS011;65794;51.836;5.002;2023-04-03T05:49:45;5.57;;;1.98;;
48765;SDS011;65794;51.836;5.002;2023-04-03T05:52:23;9.05;;;2.13;;
48765;SDS011;65794;51.836;5.002;2023-04-03T05:54:50;6.05;;;2.10;;
48765;SDS011;65794;51.836;5.002;2023-04-03T05:57:23;6.50;;;2.03;;
48765;SDS011;65794;51.836;5.002;2023-04-03T05:59:50;8.20;;;2.63;;
48765;SDS011;65794;51.836;5.002;2023-04-03T06:02:19;6.07;;;2.22;;
48765;SDS011;65794;51.836;5.002;2023-04-03T06:04:47;8.32;;;2.28;;
48765;SDS011;65794;51.836;5.002;2023-04-03T06:07:16;7.18;;;2.17;;
48765;SDS011;65794;51.836;5.002;2023-04-03T06:09:44;8.20;;;2.10;;
48765;SDS011;65794;51.836;5.002;2023-04-03T06:12:13;6.00;;;2.45;;
48765;SDS011;65794;51.836;5.002;2023-04-03T06:14:40;9.57;;;2.00;;
48765;SDS011;65794;51.836;5.002;2023-04-03T06:17:08;6.68;;;2.20;;
48765;SDS011;65794;51.836;5.002;2023-04-03T06:19:36;7.25;;;1.85;;
48765;SDS011;65794;51.836;5.002;2023-04-03T06:22:03;8.18;;;2.15;;
48765;SDS011;65794;51.836;5.002;2023-04-03T06:24:30;8.57;;;2.10;;
48765;SDS011;65794;51.836;5.002;2023-04-03T06:26:58;5.25;;;1.90;;
48765;SDS011;65794;51.836;5.002;2023-04-03T06:29:25;8.32;;;1.90;;
48765;SDS011;65794;51.836;5.002;2023-04-03T06:31:52;10.00;;;1.75;;
48765;SDS011;65794;51.836;5.002;2023-04-03T06:34:19;5.30;;;2.00;;
48765;SDS011;65794;51.836;5.002;2023-04-03T06:36:47;3.55;;;1.50;;
48765;SDS011;65794;51.836;5.002;2023-04-03T06:39:15;8.48;;;1.80;;
48765;SDS011;65794;51.836;5.002;2023-04-03T06:41:42;5.03;;;1.70;;
48765;SDS011;65794;51.836;5.002;2023-04-03T06:44:10;5.97;;;1.88;;
48765;SDS011;65794;51.836;5.002;2023-04-03T06:46:37;5.13;;;1.77;;
48765;SDS011;65794;51.836;5.002;2023-04-03T06:49:05;14.73;;;2.10;;
48765;SDS011;65794;51.836;5.002;2023-04-03T06:51:34;7.03;;;1.90;;
48765;SDS011;65794;51.836;5.002;2023-04-03T06:54:02;8.93;;;1.80;;
48765;SDS011;65794;51.836;5.002;2023-04-03T06:56:30;8.32;;;1.98;;
48765;SDS011;65794;51.836;5.002;2023-04-03T06:58:57;5.03;;;2.05;;
48765;SDS011;65794;51.836;5.002;2023-04-03T07:01:25;9.90;;;2.22;;
48765;SDS011;65794;51.836;5.002;2023-04-03T07:03:53;5.47;;;1.77;;
48765;SDS011;65794;51.836;5.002;2023-04-03T07:06:20;6.45;;;2.03;;
48765;SDS011;65794;51.836;5.002;2023-04-03T07:08:47;6.70;;;1.70;;
48765;SDS011;65794;51.836;5.002;2023-04-03T07:11:15;6.18;;;1.48;;
48765;SDS011;65794;51.836;5.002;2023-04-03T07:13:43;7.07;;;1.83;;
48765;SDS011;65794;51.836;5.002;2023-04-03T07:16:10;7.60;;;2.03;;
48765;SDS011;65794;51.836;5.002;2023-04-03T07:18:37;7.43;;;1.88;;
48765;SDS011;65794;51.836;5.002;2023-04-03T07:21:04;9.23;;;2.13;;
48765;SDS011;65794;51.836;5.002;2023-04-03T07:23:31;6.75;;;2.10;;
48765;SDS011;65794;51.836;5.002;2023-04-03T07:25:58;7.97;;;2.03;;
48765;SDS011;65794;51.836;5.002;2023-04-03T07:28:25;5.50;;;1.90;;
48765;SDS011;65794;51.836;5.002;2023-04-03T07:31:14;6.20;;;1.98;;
48765;SDS011;65794;51.836;5.002;2023-04-03T07:33:40;8.27;;;1.85;;
48765;SDS011;65794;51.836;5.002;2023-04-03T07:36:07;7.03;;;2.08;;
48765;SDS011;65794;51.836;5.002;2023-04-03T07:38:35;7.95;;;2.42;;
48765;SDS011;65794;51.836;5.002;2023-04-03T07:41:03;6.35;;;2.08;;
48765;SDS011;65794;51.836;5.002;2023-04-03T07:43:30;9.45;;;2.08;;
48765;SDS011;65794;51.836;5.002;2023-04-03T07:45:57;5.30;;;1.80;;
48765;SDS011;65794;51.836;5.002;2023-04-03T07:48:25;8.82;;;1.70;;
48765;SDS011;65794;51.836;5.002;2023-04-03T07:50:52;6.18;;;1.77;;
48765;SDS011;65794;51.836;5.002;2023-04-03T07:53:19;3.97;;;1.75;;
48765;SDS011;65794;51.836;5.002;2023-04-03T07:55:46;6.28;;;1.75;;
48765;SDS011;65794;51.836;5.002;2023-04-03T07:58:14;4.93;;;1.52;;
48765;SDS011;65794;51.836;5.002;2023-04-03T08:00:42;5.43;;;1.67;;
48765;SDS011;65794;51.836;5.002;2023-04-03T08:03:10;6.85;;;1.83;;
48765;SDS011;65794;51.836;5.002;2023-04-03T08:05:39;8.65;;;2.15;;
48765;SDS011;65794;51.836;5.002;2023-04-03T08:08:07;6.43;;;1.52;;
48765;SDS011;65794;51.836;5.002;2023-04-03T08:10:37;7.38;;;1.85;;
48765;SDS011;65794;51.836;5.002;2023-04-03T08:13:05;7.75;;;1.80;;
48765;SDS011;65794;51.836;5.002;2023-04-03T08:15:32;8.50;;;1.77;;
48765;SDS011;65794;51.836;5.002;2023-04-03T08:18:00;5.88;;;1.48;;
48765;SDS011;65794;51.836;5.002;2023-04-03T08:20:27;4.72;;;1.70;;
48765;SDS011;65794;51.836;5.002;2023-04-03T08:22:55;5.28;;;1.55;;
48765;SDS011;65794;51.836;5.002;2023-04-03T08:25:22;7.50;;;1.63;;
48765;SDS011;65794;51.836;5.002;2023-04-03T08:27:48;4.75;;;1.63;;
48765;SDS011;65794;51.836;5.002;2023-04-03T08:30:15;5.65;;;1.35;;
48765;SDS011;65794;51.836;5.002;2023-04-03T08:32:43;7.97;;;1.70;;
48765;SDS011;65794;51.836;5.002;2023-04-03T08:35:11;4.28;;;1.27;;
48765;SDS011;65794;51.836;5.002;2023-04-03T08:37:41;3.65;;;1.30;;
48765;SDS011;65794;51.836;5.002;2023-04-03T08:40:11;4.47;;;1.45;;
48765;SDS011;65794;51.836;5.002;2023-04-03T08:45:17;5.30;;;1.20;;
48765;SDS011;65794;51.836;5.002;2023-04-03T08:50:19;4.85;;;1.40;;
48765;SDS011;65794;51.836;5.002;2023-04-03T08:52:48;7.70;;;1.10;;
48765;SDS011;65794;51.836;5.002;2023-04-03T08:55:27;5.38;;;1.25;;
48765;SDS011;65794;51.836;5.002;2023-04-03T08:58:02;5.22;;;1.30;;
48765;SDS011;65794;51.836;5.002;2023-04-03T09:01:14;6.05;;;1.40;;
48765;SDS011;65794;51.836;5.002;2023-04-03T09:03:21;5.50;;;0.90;;
48765;SDS011;65794;51.836;5.002;2023-04-03T09:08:28;5.50;;;0.95;;
48765;SDS011;65794;51.836;5.002;2023-04-03T09:21:46;2.35;;;0.73;;
48765;SDS011;65794;51.836;5.002;2023-04-03T09:24:14;1.42;;;0.43;;
48765;SDS011;65794;51.836;5.002;2023-04-03T09:26:45;4.32;;;0.70;;
48765;SDS011;65794;51.836;5.002;2023-04-03T09:29:17;1.40;;;0.40;;
48765;SDS011;65794;51.836;5.002;2023-04-03T09:31:46;2.15;;;0.60;;
48765;SDS011;65794;51.836;5.002;2023-04-03T09:36:45;2.55;;;0.50;;
48765;SDS011;65794;51.836;5.002;2023-04-03T09:39:17;1.60;;;0.43;;
48765;SDS011;65794;51.836;5.002;2023-04-03T09:41:58;2.28;;;0.50;;
48765;SDS011;65794;51.836;5.002;2023-04-03T09:44:36;1.70;;;0.40;;
48765;SDS011;65794;51.836;5.002;2023-04-03T09:47:21;2.88;;;0.57;;
48765;SDS011;65794;51.836;5.002;2023-04-03T09:49:50;1.75;;;0.40;;
48765;SDS011;65794;51.836;5.002;2023-04-03T09:52:24;1.38;;;0.40;;
48765;SDS011;65794;51.836;5.002;2023-04-03T09:54:51;2.10;;;0.40;;
48765;SDS011;65794;51.836;5.002;2023-04-03T09:57:18;1.90;;;0.38;;
48765;SDS011;65794;51.836;5.002;2023-04-03T09:59:47;1.42;;;0.40;;
48765;SDS011;65794;51.836;5.002;2023-04-03T10:04:47;2.03;;;0.32;;
48765;SDS011;65794;51.836;5.002;2023-04-03T10:07:35;1.40;;;0.50;;
48765;SDS011;65794;51.836;5.002;2023-04-03T10:10:15;3.63;;;0.40;;
48765;SDS011;65794;51.836;5.002;2023-04-03T10:12:43;3.13;;;0.40;;
48765;SDS011;65794;51.836;5.002;2023-04-03T10:15:13;1.63;;;0.50;;
48765;SDS011;65794;51.836;5.002;2023-04-03T10:25:39;0.95;;;0.30;;
48765;SDS011;65794;51.836;5.002;2023-04-03T10:28:11;3.15;;;0.50;;
48765;SDS011;65794;51.836;5.002;2023-04-03T10:38:34;1.40;;;0.30;;
48765;SDS011;65794;51.836;5.002;2023-04-03T10:41:17;1.67;;;0.40;;
48765;SDS011;65794;51.836;5.002;2023-04-03T10:43:58;2.20;;;0.40;;
48765;SDS011;65794;51.836;5.002;2023-04-03T10:51:37;1.88;;;0.45;;
48765;SDS011;65794;51.836;5.002;2023-04-03T10:54:11;4.28;;;0.60;;
48765;SDS011;65794;51.836;5.002;2023-04-03T10:56:42;2.42;;;0.50;;
48765;SDS011;65794;51.836;5.002;2023-04-03T10:59:27;2.03;;;0.52;;
48765;SDS011;65794;51.836;5.002;2023-04-03T11:04:24;1.60;;;0.40;;
48765;SDS011;65794;51.836;5.002;2023-04-03T11:07:02;2.60;;;0.38;;
48765;SDS011;65794;51.836;5.002;2023-04-03T11:09:34;7.57;;;0.40;;
48765;SDS011;65794;51.836;5.002;2023-04-03T11:12:08;3.80;;;0.38;;
48765;SDS011;65794;51.836;5.002;2023-04-03T11:14:36;2.20;;;0.38;;
48765;SDS011;65794;51.836;5.002;2023-04-03T11:22:36;1.52;;;0.30;;
48765;SDS011;65794;51.836;5.002;2023-04-03T11:27:35;1.25;;;0.40;;
48765;SDS011;65794;51.836;5.002;2023-04-03T11:30:05;1.48;;;0.40;;
48765;SDS011;65794;51.836;5.002;2023-04-03T11:35:19;2.88;;;0.30;;
48765;SDS011;65794;51.836;5.002;2023-04-03T11:37:53;1.00;;;0.30;;
48765;SDS011;65794;51.836;5.002;2023-04-03T11:40:28;1.42;;;0.30;;
48765;SDS011;65794;51.836;5.002;2023-04-03T11:47:57;1.08;;;0.30;;
48765;SDS011;65794;51.836;5.002;2023-04-03T11:58:13;2.58;;;0.30;;
48765;SDS011;65794;51.836;5.002;2023-04-03T12:13:41;2.90;;;0.40;;
48765;SDS011;65794;51.836;5.002;2023-04-03T12:16:21;1.80;;;0.30;;
48765;SDS011;65794;51.836;5.002;2023-04-03T12:21:17;1.55;;;0.40;;
48765;SDS011;65794;51.836;5.002;2023-04-03T12:26:26;1.27;;;0.40;;
48765;SDS011;65794;51.836;5.002;2023-04-03T12:29:15;4.95;;;0.60;;
48765;SDS011;65794;51.836;5.002;2023-04-03T12:32:22;5.22;;;0.70;;
48765;SDS011;65794;51.836;5.002;2023-04-03T12:45:09;3.22;;;0.70;;
48765;SDS011;65794;51.836;5.002;2023-04-03T12:47:41;2.65;;;0.70;;
48765;SDS011;65794;51.836;5.002;2023-04-03T12:50:27;1.98;;;0.60;;
48765;SDS011;65794;51.836;5.002;2023-04-03T12:53:06;1.90;;;0.50;;
48765;SDS011;65794;51.836;5.002;2023-04-03T12:55:40;2.78;;;0.80;;
48765;SDS011;65794;51.836;5.002;2023-04-03T12:58:21;4.15;;;0.85;;
48765;SDS011;65794;51.836;5.002;2023-04-03T13:03:47;2.85;;;0.70;;
48765;SDS011;65794;51.836;5.002;2023-04-03T13:06:34;1.40;;;0.55;;
48765;SDS011;65794;51.836;5.002;2023-04-03T13:09:01;2.88;;;1.00;;
48765;SDS011;65794;51.836;5.002;2023-04-03T13:11:39;2.40;;;0.95;;
48765;SDS011;65794;51.836;5.002;2023-04-03T13:14:18;2.35;;;0.73;;
48765;SDS011;65794;51.836;5.002;2023-04-03T13:16:56;1.83;;;0.60;;
48765;SDS011;65794;51.836;5.002;2023-04-03T13:19:27;4.32;;;0.60;;
48765;SDS011;65794;51.836;5.002;2023-04-03T13:21:59;2.28;;;0.57;;
48765;SDS011;65794;51.836;5.002;2023-04-03T13:24:28;3.28;;;0.80;;
48765;SDS011;65794;51.836;5.002;2023-04-03T13:26:56;2.38;;;0.80;;
48765;SDS011;65794;51.836;5.002;2023-04-03T13:29:28;5.47;;;0.77;;
48765;SDS011;65794;51.836;5.002;2023-04-03T13:31:57;3.97;;;0.88;;
48765;SDS011;65794;51.836;5.002;2023-04-03T13:34:26;3.13;;;0.80;;
48765;SDS011;65794;51.836;5.002;2023-04-03T13:36:58;1.75;;;0.52;;
48765;SDS011;65794;51.836;5.002;2023-04-03T13:39:27;2.25;;;0.60;;
48765;SDS011;65794;51.836;5.002;2023-04-03T13:41:59;1.60;;;0.70;;
48765;SDS011;65794;51.836;5.002;2023-04-03T13:44:30;2.22;;;0.80;;
48765;SDS011;65794;51.836;5.002;2023-04-03T13:46:58;2.08;;;0.60;;
48765;SDS011;65794;51.836;5.002;2023-04-03T13:51:55;2.75;;;0.70;;
48765;SDS011;65794;51.836;5.002;2023-04-03T13:54:35;4.22;;;0.80;;
48765;SDS011;65794;51.836;5.002;2023-04-03T13:57:03;2.58;;;0.75;;
48765;SDS011;65794;51.836;5.002;2023-04-03T13:59:38;2.70;;;0.57;;
48765;SDS011;65794;51.836;5.002;2023-04-03T14:07:12;3.45;;;0.77;;
48765;SDS011;65794;51.836;5.002;2023-04-03T14:09:39;2.58;;;0.95;;
48765;SDS011;65794;51.836;5.002;2023-04-03T14:12:08;2.58;;;0.80;;
48765;SDS011;65794;51.836;5.002;2023-04-03T14:14:44;2.67;;;0.90;;
48765;SDS011;65794;51.836;5.002;2023-04-03T14:17:19;3.58;;;1.05;;
48765;SDS011;65794;51.836;5.002;2023-04-03T14:19:52;4.65;;;0.90;;
48765;SDS011;65794;51.836;5.002;2023-04-03T14:22:23;7.18;;;0.90;;
48765;SDS011;65794;51.836;5.002;2023-04-03T14:24:50;2.92;;;1.00;;
48765;SDS011;65794;51.836;5.002;2023-04-03T14:27:19;6.68;;;0.98;;
48765;SDS011;65794;51.836;5.002;2023-04-03T14:29:48;3.75;;;1.00;;
48765;SDS011;65794;51.836;5.002;2023-04-03T14:32:15;2.30;;;0.80;;
48765;SDS011;65794;51.836;5.002;2023-04-03T14:34:43;2.70;;;0.70;;
48765;SDS011;65794;51.836;5.002;2023-04-03T14:37:11;3.05;;;0.68;;
48765;SDS011;65794;51.836;5.002;2023-04-03T14:39:39;4.15;;;0.90;;
48765;SDS011;65794;51.836;5.002;2023-04-03T14:42:06;6.07;;;0.85;;
48765;SDS011;65794;51.836;5.002;2023-04-03T14:44:36;3.95;;;1.02;;
48765;SDS011;65794;51.836;5.002;2023-04-03T14:47:04;2.58;;;0.90;;
48765;SDS011;65794;51.836;5.002;2023-04-03T14:49:37;4.07;;;0.90;;
48765;SDS011;65794;51.836;5.002;2023-04-03T14:52:04;5.53;;;1.40;;
48765;SDS011;65794;51.836;5.002;2023-04-03T14:54:31;3.33;;;0.90;;
48765;SDS011;65794;51.836;5.002;2023-04-03T14:56:59;2.83;;;1.00;;
48765;SDS011;65794;51.836;5.002;2023-04-03T14:59:27;2.65;;;0.80;;
48765;SDS011;65794;51.836;5.002;2023-04-03T15:01:54;4.80;;;1.00;;
48765;SDS011;65794;51.836;5.002;2023-04-03T15:04:21;4.13;;;1.45;;
48765;SDS011;65794;51.836;5.002;2023-04-03T15:06:50;2.92;;;1.00;;
48765;SDS011;65794;51.836;5.002;2023-04-03T15:09:20;5.07;;;1.05;;
48765;SDS011;65794;51.836;5.002;2023-04-03T15:11:51;2.85;;;1.00;;
48765;SDS011;65794;51.836;5.002;2023-04-03T15:14:18;3.00;;;1.05;;
48765;SDS011;65794;51.836;5.002;2023-04-03T15:17:08;3.35;;;0.93;;
48765;SDS011;65794;51.836;5.002;2023-04-03T15:19:38;3.45;;;1.25;;
48765;SDS011;65794;51.836;5.002;2023-04-03T15:22:06;2.65;;;1.00;;
48765;SDS011;65794;51.836;5.002;2023-04-03T15:24:33;3.53;;;0.90;;
48765;SDS011;65794;51.836;5.002;2023-04-03T15:27:01;3.83;;;0.90;;
48765;SDS011;65794;51.836;5.002;2023-04-03T15:29:28;4.38;;;1.00;;
48765;SDS011;65794;51.836;5.002;2023-04-03T15:31:54;2.35;;;0.80;;
48765;SDS011;65794;51.836;5.002;2023-04-03T15:34:22;2.75;;;1.00;;
48765;SDS011;65794;51.836;5.002;2023-04-03T15:36:50;2.22;;;0.88;;
48765;SDS011;65794;51.836;5.002;2023-04-03T15:39:19;3.00;;;1.00;;
48765;SDS011;65794;51.836;5.002;2023-04-03T15:41:47;6.13;;;1.10;;
48765;SDS011;65794;51.836;5.002;2023-04-03T15:44:14;4.07;;;1.40;;
48765;SDS011;65794;51.836;5.002;2023-04-03T15:46:44;2.40;;;0.70;;
48765;SDS011;65794;51.836;5.002;2023-04-03T15:49:12;4.20;;;1.10;;
48765;SDS011;65794;51.836;5.002;2023-04-03T15:51:39;5.03;;;1.10;;
48765;SDS011;65794;51.836;5.002;2023-04-03T15:54:06;6.32;;;1.08;;
48765;SDS011;65794;51.836;5.002;2023-04-03T15:56:33;4.25;;;1.10;;
48765;SDS011;65794;51.836;5.002;2023-04-03T15:59:00;4.20;;;1.00;;
48765;SDS011;65794;51.836;5.002;2023-04-03T16:01:27;3.05;;;1.20;;
48765;SDS011;65794;51.836;5.002;2023-04-03T16:03:54;5.28;;;1.15;;
48765;SDS011;65794;51.836;5.002;2023-04-03T16:06:21;4.22;;;1.08;;
48765;SDS011;65794;51.836;5.002;2023-04-03T16:08:48;4.63;;;0.95;;
48765;SDS011;65794;51.836;5.002;2023-04-03T16:11:16;2.88;;;0.93;;
48765;SDS011;65794;51.836;5.002;2023-04-03T16:13:43;3.30;;;1.00;;
48765;SDS011;65794;51.836;5.002;2023-04-03T16:16:09;6.35;;;1.15;;
48765;SDS011;65794;51.836;5.002;2023-04-03T16:18:36;3.67;;;1.00;;
48765;SDS011;65794;51.836;5.002;2023-04-03T16:21:04;5.45;;;1.55;;
48765;SDS011;65794;51.836;5.002;2023-04-03T16:23:32;3.10;;;1.20;;
48765;SDS011;65794;51.836;5.002;2023-04-03T16:25:59;8.95;;;1.30;;
48765;SDS011;65794;51.836;5.002;2023-04-03T16:28:26;5.50;;;1.20;;
48765;SDS011;65794;51.836;5.002;2023-04-03T16:30:52;2.65;;;0.93;;
48765;SDS011;65794;51.836;5.002;2023-04-03T16:33:19;2.25;;;0.80;;
48765;SDS011;65794;51.836;5.002;2023-04-03T16:35:49;3.17;;;1.08;;
48765;SDS011;65794;51.836;5.002;2023-04-03T16:38:16;3.40;;;1.00;;
48765;SDS011;65794;51.836;5.002;2023-04-03T16:40:45;3.85;;;1.58;;
48765;SDS011;65794;51.836;5.002;2023-04-03T16:43:12;2.28;;;1.05;;
48765;SDS011;65794;51.836;5.002;2023-04-03T16:45:39;4.72;;;1.08;;
48765;SDS011;65794;51.836;5.002;2023-04-03T16:48:07;4.43;;;1.10;;
48765;SDS011;65794;51.836;5.002;2023-04-03T16:50:33;4.25;;;1.17;;
48765;SDS011;65794;51.836;5.002;2023-04-03T16:53:01;4.13;;;1.40;;
48765;SDS011;65794;51.836;5.002;2023-04-03T16:55:29;6.95;;;1.27;;